Terminal Aerodrome Forecast
Issued by NWS

Home | Current Version | Previous Version | Text Only | Print | Product List | Glossary On
Versions: 1 2 3 4 5 6 7 8 9 10 11 12 13 14
398
FTPA31 PHFO 102332
TAFHTO
TAF
PHTO 102332Z 1100/1124 08008KT P6SM SCT040
     FM110500 33005KT P6SM SCT040
     FM110800 24005KT P6SM BKN040
     FM112000 04011KT P6SM SCT025 BKN040=

USA.gov is the U.S. government's official web portal to all federal, state and local government web resources and services.